SNGH weather

Guanhães Airport
Guanhães, Minas Gerais, Brazil

Public forecast

Using degrees Celsius for public forecast. Weather courtesy of forecast.io.

Closest aviation weather report (METAR) to Guanhães Airport

Report is more than 2 hours old.

Closest report is Usiminas Airport, 50.0 nm (92.5 km) SSE. Retrieved 2019/10/15 02:00 UTC (3 hours ago):

SBIP 150200Z 07003KT CAVOK 19/14 Q1015

Closest aviation forecast (TAF) to Guanhães Airport

Forecast is more than 12 hours old.

Closest forecast is Serro Airport, 33.8 nm (62.6 km) W. Retrieved 2009/11/03 09:30 UTC (10 years ago):

TAF SNSO 030930Z 0312/0418 06010G20KT CAVOK TEMPO 0315/0319 5000 HZ